Time;durP1;ratioP1;P1;durP2;ratioP2;P2;SDS_P1;SDS_P2;PMS_P1;PMS_P2;Temp;Humidity;BMP_temperature;BMP_pressure;BME280_temperature;BME280_humidity;BME280_pressure;Samples;Min_cycle;Max_cycle;Signal;HPM_P1;HPM_P2
2023/10/16 00:00:49;;;;;;;;;;;18.60;60.10;;;;;;10218259;28;93765;-65
2023/10/16 00:05:51;;;;;;;;;;;18.60;60.00;;;;;;10240271;28;95534;-65
2023/10/16 00:10:57;;;;;;;;;;;18.60;60.00;;;;;;10228758;28;93403;-65
2023/10/16 00:16:02;;;;;;;;;;;18.60;60.00;;;;;;10232420;28;94236;-65
2023/10/16 00:21:05;;;;;;;;;;;18.60;60.00;;;;;;10242838;28;94578;-65
2023/10/16 00:26:10;;;;;;;;;;;18.50;60.00;;;;;;10241151;28;94712;-65
2023/10/16 00:31:20;;;;;;;;;;;18.50;60.00;;;;;;10212822;28;93748;-65
2023/10/16 00:36:22;;;;;;;;;;;18.50;59.90;;;;;;10213823;28;93613;-65
2023/10/16 00:41:24;;;;;;;;;;;18.50;60.00;;;;;;10230544;28;93961;-66
2023/10/16 00:46:30;;;;;;;;;;;18.50;59.90;;;;;;10232200;28;93242;-65
2023/10/16 00:51:33;;;;;;;;;;;18.50;59.90;;;;;;10239258;28;93831;-65
2023/10/16 00:56:43;;;;;;;;;;;18.50;59.90;;;;;;10226084;28;95672;-65
2023/10/16 01:07:05;;;;;;;;;;;18.50;59.90;;;;;;10212686;23;95157;-66
2023/10/16 01:12:07;;;;;;;;;;;18.40;59.80;;;;;;10202363;28;93601;-65
2023/10/16 01:17:10;;;;;;;;;;;18.50;59.90;;;;;;10185184;28;93681;-66
2023/10/16 01:22:13;;;;;;;;;;;18.40;59.90;;;;;;10199132;28;93400;-66
2023/10/16 01:27:29;;;;;;;;;;;18.40;59.90;;;;;;10201136;28;93208;-65
2023/10/16 01:32:32;;;;;;;;;;;18.40;59.80;;;;;;10202204;28;93902;-65
2023/10/16 01:37:35;;;;;;;;;;;18.40;59.90;;;;;;10200920;28;93088;-65
2023/10/16 01:42:36;;;;;;;;;;;18.40;59.80;;;;;;10197184;28;94514;-66
2023/10/16 01:47:39;;;;;;;;;;;18.40;59.80;;;;;;10198874;28;95860;-65
2023/10/16 01:52:41;;;;;;;;;;;18.40;59.80;;;;;;10204093;28;93727;-65
2023/10/16 01:57:44;;;;;;;;;;;18.40;59.70;;;;;;10207450;28;93677;-65
2023/10/16 02:02:46;;;;;;;;;;;18.40;59.70;;;;;;10196041;28;94082;-65
2023/10/16 02:07:50;;;;;;;;;;;18.40;59.70;;;;;;10205491;28;93601;-66
2023/10/16 02:12:52;;;;;;;;;;;18.40;59.70;;;;;;10201852;28;95378;-66
2023/10/16 02:17:54;;;;;;;;;;;18.40;59.70;;;;;;10202727;28;94057;-65
2023/10/16 02:22:56;;;;;;;;;;;18.40;59.60;;;;;;10189562;28;93149;-64
2023/10/16 02:27:58;;;;;;;;;;;18.40;59.60;;;;;;10205986;28;94455;-65
2023/10/16 02:33:12;;;;;;;;;;;18.40;59.60;;;;;;10192467;28;93291;-65
2023/10/16 02:38:14;;;;;;;;;;;18.40;59.60;;;;;;10202914;28;95888;-65
2023/10/16 02:43:18;;;;;;;;;;;18.40;59.60;;;;;;10186858;28;93928;-65
2023/10/16 02:48:20;;;;;;;;;;;18.40;59.60;;;;;;10188881;28;94367;-65
2023/10/16 02:53:24;;;;;;;;;;;18.40;59.60;;;;;;10187362;28;94743;-65
2023/10/16 02:58:26;;;;;;;;;;;18.40;59.70;;;;;;10206135;28;94469;-65
2023/10/16 03:03:28;;;;;;;;;;;18.30;59.60;;;;;;10203285;28;93362;-64
2023/10/16 03:08:30;;;;;;;;;;;18.30;59.60;;;;;;10203806;28;94919;-64
2023/10/16 03:13:35;;;;;;;;;;;18.30;59.60;;;;;;10206147;28;93745;-65
2023/10/16 03:18:43;;;;;;;;;;;18.30;59.70;;;;;;10204758;28;94354;-65
2023/10/16 03:23:46;;;;;;;;;;;18.30;59.60;;;;;;10183071;28;94442;-65
2023/10/16 03:28:48;;;;;;;;;;;18.30;59.60;;;;;;10191882;28;96638;-65
2023/10/16 03:33:50;;;;;;;;;;;18.30;59.60;;;;;;10204995;28;94461;-66
2023/10/16 03:38:52;;;;;;;;;;;18.30;59.80;;;;;;10204409;28;94534;-65
2023/10/16 03:43:58;;;;;;;;;;;18.20;59.60;;;;;;10185741;28;94211;-65
2023/10/16 03:49:00;;;;;;;;;;;18.20;59.60;;;;;;10208834;28;94707;-65
2023/10/16 03:54:02;;;;;;;;;;;18.20;59.60;;;;;;10202924;28;94046;-65
2023/10/16 03:59:05;;;;;;;;;;;18.20;59.60;;;;;;10202439;28;94053;-65
2023/10/16 04:04:12;;;;;;;;;;;18.20;59.60;;;;;;10202672;28;93047;-65
2023/10/16 04:09:16;;;;;;;;;;;18.20;59.60;;;;;;10198047;28;94374;-65
2023/10/16 04:14:17;;;;;;;;;;;18.20;59.60;;;;;;10192044;28;95608;-65
2023/10/16 04:29:28;;;;;;;;;;;18.20;59.70;;;;;;10201515;28;94370;-65
2023/10/16 04:50:14;;;;;;;;;;;18.10;59.70;;;;;;10198027;28;94240;-65
2023/10/16 04:55:52;;;;;;;;;;;18.10;59.90;;;;;;10198184;28;94194;-65
2023/10/16 05:06:05;;;;;;;;;;;18.10;59.90;;;;;;10187213;28;94484;-63
2023/10/16 05:16:35;;;;;;;;;;;18.10;60.90;;;;;;10207336;28;94497;-66
2023/10/16 06:14:53;;;;;;;;;;;18.10;60.90;;;;;;10205711;28;93548;-64
2023/10/16 06:19:55;;;;;;;;;;;18.10;61.00;;;;;;10207080;28;93443;-66
2023/10/16 06:24:57;;;;;;;;;;;18.10;61.00;;;;;;10206292;28;93402;-64
2023/10/16 06:30:00;;;;;;;;;;;18.10;61.10;;;;;;10205251;28;94459;-66
2023/10/16 06:35:02;;;;;;;;;;;18.10;61.10;;;;;;10205761;28;93517;-65
2023/10/16 06:40:15;;;;;;;;;;;18.00;61.10;;;;;;10206268;28;93849;-66
2023/10/16 06:45:22;;;;;;;;;;;18.00;61.10;;;;;;10205825;28;94604;-66
2023/10/16 06:55:26;;;;;;;;;;;18.00;61.20;;;;;;10201919;28;95781;-66
2023/10/16 07:00:32;;;;;;;;;;;18.00;61.10;;;;;;10184944;28;93475;-65
2023/10/16 07:05:43;;;;;;;;;;;18.00;60.80;;;;;;10205543;28;93482;-64
2023/10/16 07:10:50;;;;;;;;;;;18.00;62.10;;;;;;10181110;28;94369;-66
2023/10/16 07:15:53;;;;;;;;;;;18.00;62.70;;;;;;10206890;28;94575;-65
2023/10/16 07:26:07;;;;;;;;;;;18.10;62.30;;;;;;10204058;28;94694;-66
2023/10/16 07:31:10;;;;;;;;;;;18.10;62.20;;;;;;10204136;28;92750;-65
2023/10/16 07:36:13;;;;;;;;;;;18.10;62.60;;;;;;10202149;28;94057;-66
2023/10/16 07:41:18;;;;;;;;;;;18.00;63.00;;;;;;10203784;28;94316;-65
2023/10/16 07:46:30;;;;;;;;;;;18.10;63.00;;;;;;10184231;28;97281;-65
2023/10/16 07:51:32;;;;;;;;;;;18.10;62.60;;;;;;10204020;28;94612;-66
2023/10/16 07:56:35;;;;;;;;;;;18.10;62.60;;;;;;10203664;28;94539;-66
2023/10/16 08:01:54;;;;;;;;;;;18.00;62.40;;;;;;10204924;28;94742;-66
2023/10/16 08:07:04;;;;;;;;;;;18.00;62.70;;;;;;10203041;28;93431;-66
2023/10/16 08:12:18;;;;;;;;;;;18.00;63.20;;;;;;10191197;28;93596;-66
2023/10/16 08:17:26;;;;;;;;;;;18.00;63.20;;;;;;10175464;28;93908;-66
2023/10/16 08:22:28;;;;;;;;;;;18.00;63.30;;;;;;10203796;28;92824;-66
2023/10/16 08:32:54;;;;;;;;;;;18.00;63.20;;;;;;10200617;28;95263;-67
2023/10/16 08:37:59;;;;;;;;;;;18.00;63.10;;;;;;10198198;28;96721;-67
2023/10/16 08:43:01;;;;;;;;;;;18.00;63.10;;;;;;10200861;28;93262;-67
2023/10/16 08:48:05;;;;;;;;;;;18.00;63.00;;;;;;10200364;28;93706;-67
2023/10/16 08:58:34;;;;;;;;;;;18.00;62.90;;;;;;10202102;28;94405;-67
2023/10/16 09:03:37;;;;;;;;;;;18.00;62.90;;;;;;10184742;28;94241;-66
2023/10/16 09:08:41;;;;;;;;;;;18.00;62.90;;;;;;10201116;28;93277;-66
2023/10/16 09:13:49;;;;;;;;;;;18.00;62.90;;;;;;10202922;28;93740;-67
2023/10/16 09:18:51;;;;;;;;;;;18.00;62.80;;;;;;10201114;28;93569;-67
2023/10/16 09:24:00;;;;;;;;;;;18.10;62.80;;;;;;10185065;28;94893;-67
2023/10/16 09:29:13;;;;;;;;;;;18.00;62.80;;;;;;10199272;28;95911;-67
2023/10/16 09:34:18;;;;;;;;;;;18.10;62.90;;;;;;10183163;28;93219;-67
2023/10/16 09:39:30;;;;;;;;;;;18.10;62.80;;;;;;10201578;28;93753;-67
2023/10/16 09:44:38;;;;;;;;;;;18.00;62.70;;;;;;10194925;28;93979;-67
2023/10/16 09:49:41;;;;;;;;;;;18.10;62.80;;;;;;10207047;28;93730;-67
2023/10/16 09:54:45;;;;;;;;;;;18.10;62.80;;;;;;10183289;28;94591;-67
2023/10/16 09:59:53;;;;;;;;;;;18.20;62.80;;;;;;10200165;28;95986;-67
2023/10/16 10:04:59;;;;;;;;;;;18.20;62.80;;;;;;10199780;28;92669;-67
2023/10/16 10:11:04;;;;;;;;;;;18.20;62.70;;;;;;10198114;28;94835;-66
2023/10/16 10:15:26;;;;;;;;;;;18.20;62.70;;;;;;10203660;28;93754;-66
2023/10/16 10:20:39;;;;;;;;;;;18.20;62.60;;;;;;10203912;28;95865;-67
2023/10/16 10:25:41;;;;;;;;;;;18.30;62.60;;;;;;10207634;28;94399;-66
2023/10/16 10:30:44;;;;;;;;;;;18.30;62.60;;;;;;10207718;28;94931;-66
2023/10/16 10:35:48;;;;;;;;;;;18.30;62.60;;;;;;10207607;28;92659;-66
2023/10/16 10:41:05;;;;;;;;;;;18.30;62.50;;;;;;10207865;28;95608;-66
2023/10/16 10:46:07;;;;;;;;;;;18.30;62.50;;;;;;10206573;28;93441;-67
2023/10/16 10:51:13;;;;;;;;;;;18.30;62.40;;;;;;10206815;28;95880;-67
2023/10/16 10:56:17;;;;;;;;;;;18.30;62.30;;;;;;10189728;28;93736;-67
2023/10/16 11:01:29;;;;;;;;;;;18.30;62.30;;;;;;10191562;28;96180;-67
2023/10/16 11:06:43;;;;;;;;;;;18.30;62.40;;;;;;10205836;28;93623;-66
2023/10/16 11:11:47;;;;;;;;;;;18.30;62.40;;;;;;10201039;28;97521;-66
2023/10/16 11:16:49;;;;;;;;;;;18.20;62.20;;;;;;10208142;28;93965;-64
2023/10/16 11:21:52;;;;;;;;;;;18.20;62.40;;;;;;10205526;28;94565;-69
2023/10/16 11:26:54;;;;;;;;;;;18.20;62.60;;;;;;10205155;28;93479;-67
2023/10/16 11:31:57;;;;;;;;;;;18.20;62.40;;;;;;10205354;28;93697;-66
2023/10/16 11:37:06;;;;;;;;;;;18.10;62.50;;;;;;10204857;28;94526;-66
2023/10/16 11:42:09;;;;;;;;;;;18.10;62.40;;;;;;10203062;28;93478;-67
2023/10/16 11:47:18;;;;;;;;;;;18.10;62.40;;;;;;10205361;28;93867;-66
2023/10/16 11:52:20;;;;;;;;;;;18.10;62.40;;;;;;10199959;28;93646;-66
2023/10/16 11:57:23;;;;;;;;;;;18.10;62.40;;;;;;10203598;28;94453;-67
2023/10/16 12:02:29;;;;;;;;;;;18.10;62.30;;;;;;10199209;28;96858;-67
2023/10/16 12:07:43;;;;;;;;;;;18.10;62.40;;;;;;10198298;28;93892;-68
2023/10/16 12:12:45;;;;;;;;;;;18.10;62.40;;;;;;10201176;28;94701;-67
2023/10/16 12:17:47;;;;;;;;;;;18.10;62.40;;;;;;10202484;28;92783;-67
2023/10/16 12:22:49;;;;;;;;;;;18.10;62.40;;;;;;10186419;28;93723;-67
2023/10/16 12:27:51;;;;;;;;;;;18.10;62.40;;;;;;10202273;28;93475;-67
2023/10/16 12:32:57;;;;;;;;;;;18.00;62.40;;;;;;10202075;28;93342;-67
2023/10/16 12:37:59;;;;;;;;;;;18.10;62.40;;;;;;10201860;28;93296;-67
2023/10/16 12:43:01;;;;;;;;;;;18.10;62.70;;;;;;10200660;28;93612;-67
2023/10/16 12:48:04;;;;;;;;;;;18.10;62.70;;;;;;10185673;28;93625;-67
2023/10/16 12:53:08;;;;;;;;;;;18.10;62.60;;;;;;10199321;28;96828;-67
2023/10/16 12:58:11;;;;;;;;;;;18.10;62.60;;;;;;10202501;28;94634;-65
2023/10/16 13:03:15;;;;;;;;;;;18.10;62.70;;;;;;10200674;28;94366;-66
2023/10/16 13:08:20;;;;;;;;;;;18.10;62.60;;;;;;10196669;28;93481;-66
2023/10/16 13:13:22;;;;;;;;;;;18.20;62.70;;;;;;10198652;28;93471;-66
2023/10/16 13:18:30;;;;;;;;;;;18.20;62.60;;;;;;10202904;28;94922;-66
2023/10/16 13:23:34;;;;;;;;;;;18.20;62.60;;;;;;10200803;28;94727;-66
2023/10/16 13:28:47;;;;;;;;;;;18.10;62.40;;;;;;10199853;28;92542;-66
2023/10/16 13:33:50;;;;;;;;;;;18.10;62.40;;;;;;10209000;28;93460;-66
2023/10/16 13:38:53;;;;;;;;;;;18.10;62.20;;;;;;10201490;28;94521;-66
2023/10/16 13:43:55;;;;;;;;;;;18.20;62.20;;;;;;10198491;28;96800;-66
2023/10/16 13:49:00;;;;;;;;;;;18.10;62.20;;;;;;10187825;28;94277;-67
2023/10/16 13:54:02;;;;;;;;;;;18.20;62.20;;;;;;10207313;28;94294;-66
2023/10/16 13:59:04;;;;;;;;;;;18.10;62.20;;;;;;10216100;28;94672;-66
2023/10/16 14:04:16;;;;;;;;;;;18.20;62.30;;;;;;10206070;28;93411;-66
2023/10/16 14:09:20;;;;;;;;;;;18.10;62.20;;;;;;10175033;28;94660;-67
2023/10/16 14:14:24;;;;;;;;;;;18.20;62.30;;;;;;10206795;28;94753;-66
2023/10/16 14:19:29;;;;;;;;;;;18.20;62.20;;;;;;10207304;28;92865;-67
2023/10/16 14:24:31;;;;;;;;;;;18.10;62.20;;;;;;10207349;28;93540;-66
2023/10/16 14:29:35;;;;;;;;;;;18.10;62.20;;;;;;10206771;28;93506;-66
2023/10/16 14:34:37;;;;;;;;;;;18.10;62.20;;;;;;10179391;28;95794;-66
2023/10/16 14:39:39;;;;;;;;;;;18.10;62.30;;;;;;10205302;28;93742;-66
2023/10/16 14:44:44;;;;;;;;;;;18.10;62.40;;;;;;10205962;28;94279;-66
2023/10/16 14:49:46;;;;;;;;;;;18.10;62.40;;;;;;10208475;28;94613;-66
2023/10/16 14:54:48;;;;;;;;;;;18.10;62.30;;;;;;10205171;28;94083;-66
2023/10/16 14:59:50;;;;;;;;;;;18.10;62.40;;;;;;10206325;28;93814;-65
2023/10/16 15:04:54;;;;;;;;;;;18.00;62.40;;;;;;10206056;28;94247;-67
2023/10/16 15:09:56;;;;;;;;;;;18.00;62.40;;;;;;10204584;28;93523;-66
2023/10/16 15:14:58;;;;;;;;;;;18.00;62.30;;;;;;10205076;28;94035;-66
2023/10/16 15:20:03;;;;;;;;;;;18.10;62.40;;;;;;10203401;28;94092;-65
2023/10/16 15:25:05;;;;;;;;;;;18.10;62.50;;;;;;10202026;28;95823;-66
2023/10/16 15:30:10;;;;;;;;;;;18.10;62.50;;;;;;10204125;28;93870;-66
2023/10/16 15:35:14;;;;;;;;;;;18.00;62.50;;;;;;10204324;28;94740;-67
2023/10/16 15:40:20;;;;;;;;;;;18.10;62.60;;;;;;10181584;28;93484;-66
2023/10/16 15:45:25;;;;;;;;;;;18.00;62.50;;;;;;10186654;28;93673;-67
2023/10/16 15:50:31;;;;;;;;;;;18.10;62.60;;;;;;10203575;28;94824;-66
2023/10/16 15:55:33;;;;;;;;;;;18.10;62.60;;;;;;10203722;28;94422;-66
2023/10/16 16:00:37;;;;;;;;;;;18.10;62.50;;;;;;10196968;28;92841;-66
2023/10/16 16:05:40;;;;;;;;;;;18.10;62.50;;;;;;10202115;28;94728;-67
2023/10/16 16:10:42;;;;;;;;;;;18.10;62.60;;;;;;10188420;28;93831;-67
2023/10/16 16:15:45;;;;;;;;;;;18.10;62.60;;;;;;10198001;28;95602;-67
2023/10/16 16:20:47;;;;;;;;;;;18.00;62.50;;;;;;10202680;28;93448;-67
2023/10/16 16:25:50;;;;;;;;;;;18.00;62.70;;;;;;10203471;28;93593;-67
2023/10/16 16:30:53;;;;;;;;;;;18.00;62.70;;;;;;10203434;28;93705;-66
2023/10/16 16:35:56;;;;;;;;;;;18.00;62.50;;;;;;10194974;28;94599;-67
2023/10/16 16:40:58;;;;;;;;;;;18.00;63.20;;;;;;10200244;28;95032;-65
2023/10/16 16:46:00;;;;;;;;;;;18.10;62.90;;;;;;10197804;28;93519;-66
2023/10/16 16:51:02;;;;;;;;;;;18.20;64.20;;;;;;10183475;28;93807;-65
2023/10/16 16:56:04;;;;;;;;;;;18.50;66.40;;;;;;10200064;28;94124;-66
2023/10/16 17:01:07;;;;;;;;;;;18.60;64.50;;;;;;10176310;28;93741;-70
2023/10/16 17:06:09;;;;;;;;;;;18.60;63.60;;;;;;10197546;28;97013;-66
2023/10/16 17:11:13;;;;;;;;;;;18.50;63.50;;;;;;10200097;28;94627;-66
2023/10/16 17:16:15;;;;;;;;;;;18.50;63.50;;;;;;10202305;28;93457;-69
2023/10/16 17:21:19;;;;;;;;;;;18.60;63.60;;;;;;10204208;28;93981;-66
2023/10/16 17:26:24;;;;;;;;;;;18.50;63.50;;;;;;10208427;28;94427;-67
2023/10/16 17:31:26;;;;;;;;;;;18.50;63.50;;;;;;10201710;28;94082;-66
2023/10/16 17:36:28;;;;;;;;;;;18.50;64.50;;;;;;10202344;28;93257;-66
2023/10/16 17:41:30;;;;;;;;;;;18.40;63.50;;;;;;10207404;28;93748;-66
2023/10/16 17:46:33;;;;;;;;;;;18.50;63.60;;;;;;10204783;28;94034;-67
2023/10/16 17:51:35;;;;;;;;;;;18.40;63.50;;;;;;10206140;28;93870;-67
2023/10/16 17:56:39;;;;;;;;;;;18.40;63.50;;;;;;10179161;28;97604;-66
2023/10/16 18:01:42;;;;;;;;;;;18.40;63.50;;;;;;10188371;28;94437;-67
2023/10/16 18:06:44;;;;;;;;;;;18.40;63.50;;;;;;10205879;28;93477;-67
2023/10/16 18:11:47;;;;;;;;;;;18.40;63.50;;;;;;10198978;28;93654;-67
2023/10/16 18:16:49;;;;;;;;;;;18.40;63.50;;;;;;10206816;28;94330;-67
2023/10/16 18:21:51;;;;;;;;;;;18.30;63.40;;;;;;10205526;28;93543;-67
2023/10/16 18:26:53;;;;;;;;;;;18.30;63.50;;;;;;10202744;28;94505;-66
2023/10/16 18:31:55;;;;;;;;;;;18.30;63.60;;;;;;10191096;28;92719;-66
2023/10/16 18:36:57;;;;;;;;;;;18.30;63.60;;;;;;10205865;28;94491;-67
2023/10/16 18:41:59;;;;;;;;;;;18.30;63.60;;;;;;10204831;28;94380;-67
2023/10/16 18:47:04;;;;;;;;;;;18.30;63.60;;;;;;10202743;28;97716;-67
2023/10/16 18:52:06;;;;;;;;;;;18.20;63.60;;;;;;10202333;28;94275;-66
2023/10/16 18:57:09;;;;;;;;;;;18.20;63.60;;;;;;10205504;28;93897;-67
2023/10/16 19:02:12;;;;;;;;;;;18.20;63.60;;;;;;10205804;28;93594;-67
2023/10/16 19:07:14;;;;;;;;;;;18.20;63.60;;;;;;10188764;28;94210;-68
2023/10/16 19:12:15;;;;;;;;;;;18.20;63.70;;;;;;10204524;28;94009;-73
2023/10/16 19:17:17;;;;;;;;;;;18.20;63.60;;;;;;10204534;28;94490;-67
2023/10/16 19:22:19;;;;;;;;;;;18.20;63.60;;;;;;10192011;28;93682;-66
2023/10/16 19:27:22;;;;;;;;;;;18.20;63.70;;;;;;10186326;28;93118;-67
2023/10/16 19:32:24;;;;;;;;;;;18.20;63.60;;;;;;10192433;28;95333;-67
2023/10/16 19:37:26;;;;;;;;;;;18.20;63.60;;;;;;10201066;28;95810;-67
2023/10/16 19:42:28;;;;;;;;;;;18.20;63.60;;;;;;10201666;28;93580;-68
2023/10/16 19:47:30;;;;;;;;;;;18.10;63.50;;;;;;10192804;28;94613;-67
2023/10/16 19:52:33;;;;;;;;;;;18.10;63.50;;;;;;10202828;28;93420;-66
2023/10/16 19:57:39;;;;;;;;;;;18.10;64.60;;;;;;10186670;28;94596;-67
2023/10/16 20:02:41;;;;;;;;;;;18.10;63.50;;;;;;10183659;28;93318;-67
2023/10/16 20:07:43;;;;;;;;;;;18.10;63.60;;;;;;10200981;28;92882;-67
2023/10/16 20:12:46;;;;;;;;;;;18.10;63.50;;;;;;10172952;28;93940;-68
2023/10/16 20:17:48;;;;;;;;;;;18.10;63.50;;;;;;10192411;28;93468;-66
2023/10/16 20:23:03;;;;;;;;;;;18.10;63.40;;;;;;10198262;28;93963;-66
2023/10/16 20:28:08;;;;;;;;;;;18.10;63.50;;;;;;10201229;28;96813;-67
2023/10/16 20:33:16;;;;;;;;;;;18.00;63.50;;;;;;10196686;28;95075;-67
2023/10/16 20:38:18;;;;;;;;;;;18.00;63.30;;;;;;10202622;28;93485;-66
2023/10/16 20:43:24;;;;;;;;;;;18.00;63.30;;;;;;10210368;28;93474;-67
2023/10/16 20:48:26;;;;;;;;;;;18.00;63.20;;;;;;10197601;28;93447;-67
2023/10/16 20:53:28;;;;;;;;;;;18.00;63.30;;;;;;10203008;28;94554;-67
2023/10/16 20:58:30;;;;;;;;;;;18.00;63.10;;;;;;10202877;28;93333;-66
2023/10/16 21:03:32;;;;;;;;;;;17.90;63.00;;;;;;10197074;28;94195;-67
2023/10/16 21:08:34;;;;;;;;;;;18.00;63.10;;;;;;10201100;28;93493;-67
2023/10/16 21:13:36;;;;;;;;;;;18.00;62.90;;;;;;10184028;28;94469;-66
2023/10/16 21:18:38;;;;;;;;;;;17.90;62.80;;;;;;10198027;28;95915;-66
2023/10/16 21:23:40;;;;;;;;;;;17.90;62.70;;;;;;10202009;28;93728;-66
2023/10/16 21:28:42;;;;;;;;;;;17.90;62.70;;;;;;10201150;28;93660;-67
2023/10/16 21:33:44;;;;;;;;;;;17.90;62.60;;;;;;10201426;28;94762;-67
2023/10/16 21:38:46;;;;;;;;;;;17.90;62.60;;;;;;10202105;28;93905;-64
2023/10/16 21:43:48;;;;;;;;;;;17.90;62.60;;;;;;10207846;28;93466;-67
2023/10/16 21:48:51;;;;;;;;;;;17.90;62.60;;;;;;10200837;28;93648;-67
2023/10/16 21:53:53;;;;;;;;;;;17.90;62.50;;;;;;10201462;28;92692;-66
2023/10/16 21:58:55;;;;;;;;;;;17.90;62.40;;;;;;10201245;28;94604;-66
2023/10/16 22:03:57;;;;;;;;;;;17.90;62.40;;;;;;10201948;28;94091;-67
2023/10/16 22:08:59;;;;;;;;;;;17.90;62.40;;;;;;10191519;28;96835;-67
2023/10/16 22:14:01;;;;;;;;;;;17.80;62.20;;;;;;10218359;28;93573;-67
2023/10/16 22:19:05;;;;;;;;;;;17.80;62.20;;;;;;10206821;28;112633;-67
2023/10/16 22:24:08;;;;;;;;;;;17.80;62.20;;;;;;10205194;28;93761;-67
2023/10/16 22:29:11;;;;;;;;;;;17.80;63.20;;;;;;10208346;28;94138;-66
2023/10/16 22:34:14;;;;;;;;;;;17.80;62.10;;;;;;10207368;28;93539;-67
2023/10/16 22:39:17;;;;;;;;;;;17.80;62.10;;;;;;10207567;28;94416;-67
2023/10/16 22:44:20;;;;;;;;;;;17.70;62.10;;;;;;10191162;28;94807;-67
2023/10/16 22:49:22;;;;;;;;;;;17.70;62.00;;;;;;10207633;28;93428;-66
2023/10/16 22:54:25;;;;;;;;;;;17.70;62.00;;;;;;10173161;28;94301;-66
2023/10/16 22:59:28;;;;;;;;;;;17.70;62.00;;;;;;10204896;28;96394;-72
2023/10/16 23:04:30;;;;;;;;;;;17.70;61.90;;;;;;10206946;28;92961;-69
2023/10/16 23:09:35;;;;;;;;;;;17.70;61.90;;;;;;10199938;28;94510;-66
2023/10/16 23:14:37;;;;;;;;;;;17.70;61.90;;;;;;10206823;28;94384;-66
2023/10/16 23:19:39;;;;;;;;;;;17.70;61.90;;;;;;10188646;28;94282;-69
2023/10/16 23:24:42;;;;;;;;;;;17.60;61.80;;;;;;10203412;28;94568;-67
2023/10/16 23:29:45;;;;;;;;;;;17.60;61.80;;;;;;10206179;28;94454;-66
2023/10/16 23:34:53;;;;;;;;;;;17.60;61.80;;;;;;10210777;28;93290;-67
2023/10/16 23:39:57;;;;;;;;;;;17.60;61.70;;;;;;10204662;28;93709;-67
2023/10/16 23:45:06;;;;;;;;;;;17.60;61.80;;;;;;10205321;28;94446;-67
2023/10/16 23:50:15;;;;;;;;;;;17.60;61.70;;;;;;10169832;28;97095;-67
2023/10/16 23:55:16;;;;;;;;;;;17.60;61.70;;;;;;10204547;28;93746;-65
